Saurimo, Henrique de Carvalho Airport (FNSA)

NameHenrique de Carvalho Airport
CitySaurimo
CountryAngola
ICAOFNSA
IATAVHC
Altitude1092 m
CoordinatesGoogle Map
Live Air TrafficLiveATC.net
METARFNSA 151400Z 27006KT CAVOK 32/17 Q1018
2019-09-15 14:00:00 Wind: West (270°) 3.09 m/s - Visibility: > 10000 m - Weather: CAVOK - Temperature: 32 °C - Dew point: 17 °C - Humidity: 40.6% - Pressure: 1018 hPa
Statistics

The table below shows the detailed information of all flights to/from Saurimo, Henrique de Carvalho Airport (FNSA).